Time;durP1;ratioP1;P1;durP2;ratioP2;P2;SDS_P1;SDS_P2;PMS_P1;PMS_P2;Temp;Humidity;BMP_temperature;BMP_pressure;BME280_temperature;BME280_humidity;BME280_pressure;Samples;Min_cycle;Max_cycle;Signal;HPM_P1;HPM_P2
2023/04/18 00:01:28;;;;;;;6.87;4.30;;;;;;;-145.69;100.00;52598.84;5075452;28;20221;-79
2023/04/18 00:03:55;;;;;;;9.73;5.00;;;;;;;-145.69;100.00;52586.97;5075365;28;20218;-79
2023/04/18 00:06:21;;;;;;;5.57;4.00;;;;;;;-145.69;100.00;52555.28;5075154;28;20206;-79
2023/04/18 00:08:48;;;;;;;6.70;4.23;;;;;;;-145.69;100.00;52535.47;5074695;28;20582;-79
2023/04/18 00:11:14;;;;;;;5.93;4.23;;;;;;;-145.69;100.00;52569.16;5075131;28;20205;-79
2023/04/18 00:13:41;;;;;;;7.20;3.87;;;;;;;-145.69;100.00;52590.94;5075062;28;20657;-79
2023/04/18 00:16:08;;;;;;;8.60;4.20;;;;;;;-145.69;100.00;52579.06;5075173;28;20785;-80
2023/04/18 00:18:36;;;;;;;6.13;4.10;;;;;;;-145.69;100.00;52579.06;5074968;28;20673;-79
2023/04/18 00:21:03;;;;;;;6.70;3.70;;;;;;;-145.69;100.00;52523.59;5074963;28;20206;-79
2023/04/18 00:23:29;;;;;;;6.57;4.40;;;;;;;-145.69;100.00;52592.91;5074743;28;20198;-79
2023/04/18 00:25:56;;;;;;;9.33;5.30;;;;;;;-145.69;100.00;52586.97;5075148;28;20199;-78
2023/04/18 00:28:22;;;;;;;7.17;4.40;;;;;;;-145.69;100.00;52555.28;5074972;28;20218;-79
2023/04/18 00:30:49;;;;;;;9.43;5.23;;;;;;;-145.69;100.00;52590.94;5074920;28;20674;-79
2023/04/18 00:33:15;;;;;;;9.03;5.87;;;;;;;-145.69;100.00;52565.19;5074704;28;20224;-78
2023/04/18 00:35:43;;;;;;;11.27;6.00;;;;;;;-145.69;100.00;52539.44;5074836;28;20679;-79
2023/04/18 00:38:10;;;;;;;8.67;5.40;;;;;;;-145.69;100.00;52551.31;5074585;28;20672;-79
2023/04/18 00:40:36;;;;;;;7.97;4.60;;;;;;;-145.69;100.00;52535.47;5074794;28;20194;-79
2023/04/18 00:43:03;;;;;;;7.87;4.63;;;;;;;-145.69;100.00;52549.34;5074725;28;20194;-79
2023/04/18 00:45:29;;;;;;;10.87;5.43;;;;;;;-145.69;100.00;52559.25;5074520;28;20226;-78
2023/04/18 00:47:56;;;;;;;9.03;5.23;;;;;;;-145.69;100.00;52575.09;5074528;28;20206;-79
2023/04/18 00:50:22;;;;;;;11.77;6.70;;;;;;;-145.69;100.00;52563.22;5072843;28;20320;-79
2023/04/18 00:52:51;;;;;;;12.33;6.77;;;;;;;-145.69;100.00;52592.91;5074013;28;20682;-79
2023/04/18 00:55:18;;;;;;;11.10;6.43;;;;;;;-145.69;100.00;52575.09;5074642;28;20226;-79
2023/04/18 00:57:45;;;;;;;10.60;6.13;;;;;;;-145.69;100.00;52543.41;5074184;28;20561;-79
2023/04/18 01:00:12;;;;;;;12.13;6.57;;;;;;;-145.69;100.00;52571.13;5074312;28;20681;-79
2023/04/18 01:02:39;;;;;;;9.40;5.33;;;;;;;-145.69;100.00;52555.28;5073999;28;20678;-78
2023/04/18 01:05:07;;;;;;;14.70;7.40;;;;;;;-145.69;100.00;52559.25;5074142;28;20233;-79
2023/04/18 01:07:37;;;;;;;14.17;7.07;;;;;;;-145.69;100.00;52553.31;5073792;28;20231;-79
2023/04/18 01:10:05;;;;;;;12.93;6.50;;;;;;;-145.69;100.00;52541.44;5073828;28;20269;-80
2023/04/18 01:12:32;;;;;;;13.97;8.03;;;;;;;-145.69;100.00;52571.13;5073912;28;20187;-80
2023/04/18 01:14:59;;;;;;;15.07;8.00;;;;;;;-145.69;100.00;52539.44;5073281;28;20198;-80
2023/04/18 01:17:27;;;;;;;15.80;7.77;;;;;;;-145.69;100.00;52567.16;5073910;28;20289;-79
2023/04/18 01:19:53;;;;;;;14.93;7.97;;;;;;;-145.69;100.00;52555.28;5074120;28;20195;-79
2023/04/18 01:22:20;;;;;;;15.03;8.20;;;;;;;-145.69;100.00;52551.31;5073113;28;20195;-79
2023/04/18 01:24:47;;;;;;;15.27;8.17;;;;;;;-145.69;100.00;52563.22;5073786;28;20206;-80
2023/04/18 01:27:14;;;;;;;13.60;7.37;;;;;;;-145.69;100.00;52555.28;5074014;28;20206;-80
2023/04/18 01:29:40;;;;;;;14.17;7.50;;;;;;;-145.69;100.00;52579.06;5073643;28;20233;-79
2023/04/18 01:32:07;;;;;;;12.50;6.77;;;;;;;-145.69;100.00;52567.16;5073475;28;20218;-80
2023/04/18 01:34:33;;;;;;;12.20;6.97;;;;;;;-145.69;100.00;52579.06;5073764;28;20199;-80
2023/04/18 01:37:00;;;;;;;12.43;7.20;;;;;;;-145.69;100.00;52604.81;5073005;28;20191;-79
2023/04/18 01:39:26;;;;;;;13.57;7.33;;;;;;;-145.69;100.00;52551.31;5073794;28;20213;-78
2023/04/18 01:41:54;;;;;;;11.60;6.93;;;;;;;-145.69;100.00;52551.31;5073094;28;21631;-79
2023/04/18 01:44:21;;;;;;;11.77;7.43;;;;;;;-145.69;100.00;52571.13;5073279;28;20582;-79
2023/04/18 01:46:47;;;;;;;11.93;7.13;;;;;;;-145.69;100.00;52575.09;5063191;28;20210;-79
2023/04/18 01:49:13;;;;;;;12.07;6.97;;;;;;;-145.69;100.00;52571.13;5053455;28;20223;-80
2023/04/18 01:51:41;;;;;;;13.17;7.93;;;;;;;-145.69;100.00;52579.06;5054254;28;20195;-80
2023/04/18 01:54:08;;;;;;;14.27;7.53;;;;;;;-145.69;100.00;52588.97;5073052;28;20194;-79
2023/04/18 01:56:34;;;;;;;11.57;7.03;;;;;;;-145.69;100.00;52525.59;5072550;28;20191;-79
2023/04/18 01:59:02;;;;;;;12.07;7.03;;;;;;;-145.69;100.00;52553.31;5073370;28;20199;-80
2023/04/18 02:01:29;;;;;;;11.63;6.93;;;;;;;-145.69;100.00;52577.06;5072416;28;20252;-79
2023/04/18 02:03:55;;;;;;;13.43;7.33;;;;;;;-145.69;100.00;52561.22;5073007;28;20336;-80
2023/04/18 02:06:22;;;;;;;11.73;6.67;;;;;;;-145.69;100.00;52561.22;5073458;28;20562;-80
2023/04/18 02:08:48;;;;;;;10.87;6.33;;;;;;;-145.69;100.00;52557.28;5073127;28;20248;-79
2023/04/18 02:11:14;;;;;;;11.87;7.03;;;;;;;-145.69;100.00;52559.25;5072884;28;20218;-79
2023/04/18 02:13:41;;;;;;;9.87;6.20;;;;;;;-145.69;100.00;52590.94;5072678;28;20195;-80
2023/04/18 02:16:12;;;;;;;11.10;6.83;;;;;;;-145.69;100.00;52547.38;5073134;28;20627;-79
2023/04/18 02:18:40;;;;;;;9.60;6.30;;;;;;;-145.69;100.00;52555.28;5073127;28;20594;-79
2023/04/18 02:21:08;;;;;;;12.07;6.87;;;;;;;-145.69;100.00;52559.25;5072921;28;20199;-79
2023/04/18 02:23:34;;;;;;;12.40;6.93;;;;;;;-145.69;100.00;52561.22;5073012;28;20209;-79
2023/04/18 02:26:01;;;;;;;11.33;6.83;;;;;;;-145.69;100.00;52557.28;5072895;28;20206;-79
2023/04/18 02:28:27;;;;;;;11.00;7.00;;;;;;;-145.69;100.00;52596.88;5072933;28;20198;-79
2023/04/18 02:30:54;;;;;;;13.10;7.30;;;;;;;-145.69;100.00;52561.22;5072939;28;20218;-79
2023/04/18 02:33:22;;;;;;;11.90;6.60;;;;;;;-145.69;100.00;52567.16;5072958;28;20251;-79
2023/04/18 02:35:48;;;;;;;11.27;6.67;;;;;;;-145.69;100.00;52559.25;5073082;28;20206;-78
2023/04/18 02:38:15;;;;;;;10.47;6.43;;;;;;;-145.69;100.00;52569.16;5072836;28;20202;-79
2023/04/18 02:40:41;;;;;;;11.07;6.57;;;;;;;-145.69;100.00;52555.28;5072593;28;20198;-79
2023/04/18 02:43:08;;;;;;;12.23;7.00;;;;;;;-145.69;100.00;52588.97;5072651;28;20206;-79
2023/04/18 02:45:34;;;;;;;11.80;7.30;;;;;;;-145.69;100.00;52563.22;5072444;28;20302;-79
2023/04/18 02:48:01;;;;;;;13.50;7.33;;;;;;;-145.69;100.00;52579.06;5072895;28;20203;-79
2023/04/18 02:50:29;;;;;;;11.73;6.73;;;;;;;-145.69;100.00;52535.47;5072456;28;20234;-79
2023/04/18 02:52:55;;;;;;;12.60;7.17;;;;;;;-145.69;100.00;52563.22;5072761;28;20202;-80
2023/04/18 02:55:23;;;;;;;13.13;6.77;;;;;;;-145.69;100.00;52535.47;5072418;28;20248;-79
2023/04/18 02:57:49;;;;;;;13.53;7.80;;;;;;;-145.69;100.00;52577.06;5072499;28;20277;-79
2023/04/18 03:00:16;;;;;;;15.90;7.47;;;;;;;-145.69;100.00;52551.31;5072343;28;20684;-79
2023/04/18 03:02:42;;;;;;;13.53;7.53;;;;;;;-145.69;100.00;52567.16;5072430;28;20206;-79
2023/04/18 03:05:09;;;;;;;13.60;8.17;;;;;;;-145.69;100.00;52563.22;5072470;28;20205;-79
2023/04/18 03:07:37;;;;;;;11.47;6.87;;;;;;;-145.69;100.00;52555.28;5072378;28;20207;-79
2023/04/18 03:10:04;;;;;;;14.40;8.30;;;;;;;-145.69;100.00;52557.28;5071883;28;20558;-79
2023/04/18 03:12:30;;;;;;;14.47;7.83;;;;;;;-145.69;100.00;52579.06;5072642;28;20245;-80
2023/04/18 03:14:57;;;;;;;14.13;7.53;;;;;;;-145.69;100.00;52590.94;5075235;28;20199;-80
2023/04/18 03:17:23;;;;;;;14.10;7.87;;;;;;;-145.69;100.00;52571.13;5076259;28;20550;-79
2023/04/18 03:19:50;;;;;;;11.37;6.70;;;;;;;-145.69;100.00;52555.28;5076093;28;20202;-79
2023/04/18 03:22:16;;;;;;;11.77;7.03;;;;;;;-145.69;100.00;52577.06;5076330;28;20549;-79
2023/04/18 03:24:44;;;;;;;12.20;7.37;;;;;;;-145.69;100.00;52579.06;5076103;28;20217;-79
2023/04/18 03:27:12;;;;;;;11.90;7.13;;;;;;;-145.69;100.00;52581.03;5076296;28;20195;-79
2023/04/18 03:29:39;;;;;;;12.10;7.20;;;;;;;-145.69;100.00;52581.03;5075933;28;20203;-79
2023/04/18 03:32:05;;;;;;;11.40;6.70;;;;;;;-145.69;100.00;52583.00;5076260;28;20604;-80
2023/04/18 03:34:31;;;;;;;10.37;6.50;;;;;;;-145.69;100.00;52571.13;5076034;28;20198;-80
2023/04/18 03:36:58;;;;;;;13.70;7.37;;;;;;;-145.69;100.00;52575.09;5075067;28;20535;-79
2023/04/18 03:39:24;;;;;;;14.23;7.87;;;;;;;-145.69;100.00;52565.19;5074044;28;20676;-79
2023/04/18 03:41:52;;;;;;;17.10;9.70;;;;;;;-145.69;100.00;52571.13;5074992;28;20993;-79
2023/04/18 03:44:19;;;;;;;14.37;8.47;;;;;;;-145.69;100.00;52569.16;5075634;28;20701;-79
2023/04/18 03:46:45;;;;;;;16.67;8.13;;;;;;;-145.69;100.00;52577.06;5075653;28;20553;-79
2023/04/18 03:49:12;;;;;;;14.27;7.70;;;;;;;-145.69;100.00;52547.38;5074191;28;20576;-79
2023/04/18 03:51:43;;;;;;;14.23;7.90;;;;;;;-145.69;100.00;52547.38;5070474;28;20711;-80
2023/04/18 03:54:09;;;;;;;13.90;7.80;;;;;;;-145.69;100.00;52571.13;5070046;28;20252;-79
2023/04/18 03:56:36;;;;;;;15.23;8.50;;;;;;;-145.69;100.00;52583.00;5075834;28;20203;-79
2023/04/18 03:59:03;;;;;;;15.10;8.27;;;;;;;-145.69;100.00;52555.28;5075358;28;20199;-80
2023/04/18 04:01:30;;;;;;;19.63;10.60;;;;;;;-145.69;100.00;52594.91;5075443;28;20191;-80
2023/04/18 04:03:56;;;;;;;18.60;9.53;;;;;;;-145.69;100.00;52579.06;5075155;28;20688;-80
2023/04/18 04:06:23;;;;;;;22.17;10.67;;;;;;;-145.69;100.00;52586.97;5074972;28;20600;-80
2023/04/18 04:08:50;;;;;;;20.77;10.20;;;;;;;-145.69;100.00;52583.00;5075332;28;20226;-79
2023/04/18 04:11:16;;;;;;;20.87;10.33;;;;;;;-145.69;100.00;52565.19;5075087;28;20234;-79
2023/04/18 04:13:43;;;;;;;18.67;9.93;;;;;;;-145.69;100.00;52586.97;5075582;28;20202;-79
2023/04/18 04:16:10;;;;;;;20.30;10.40;;;;;;;-145.69;100.00;52614.72;5074817;28;20202;-80
2023/04/18 04:18:37;;;;;;;16.77;9.20;;;;;;;-145.69;100.00;52565.19;5075160;28;20201;-79
2023/04/18 04:21:05;;;;;;;19.20;10.00;;;;;;;-145.69;100.00;52575.09;5075336;28;20535;-79
2023/04/18 04:23:32;;;;;;;22.90;10.23;;;;;;;-145.69;100.00;52577.06;5074800;28;20285;-79
2023/04/18 04:26:01;;;;;;;15.13;8.10;;;;;;;-145.69;100.00;52594.91;5074532;28;20194;-80
2023/04/18 04:28:29;;;;;;;17.73;9.77;;;;;;;-145.69;100.00;52557.28;5074754;28;20677;-79
2023/04/18 04:30:56;;;;;;;19.83;10.37;;;;;;;-145.69;100.00;52600.84;5074881;28;20254;-79
2023/04/18 04:33:27;;;;;;;20.50;10.57;;;;;;;-145.69;100.00;52588.97;5074846;28;20202;-79
2023/04/18 04:35:54;;;;;;;19.17;10.10;;;;;;;-145.69;100.00;52577.06;5074445;28;20201;-79
2023/04/18 04:38:22;;;;;;;21.13;11.10;;;;;;;-145.69;100.00;52604.81;5074219;28;20662;-79
2023/04/18 04:40:49;;;;;;;21.17;10.63;;;;;;;-145.69;100.00;52553.31;5074897;28;20233;-79
2023/04/18 04:43:15;;;;;;;20.70;10.63;;;;;;;-145.69;100.00;52606.78;5074694;28;20198;-79
2023/04/18 04:45:43;;;;;;;25.17;11.37;;;;;;;-145.69;100.00;52543.41;5074395;28;20250;-79
2023/04/18 04:48:10;;;;;;;25.13;11.30;;;;;;;-145.69;100.00;52575.09;5074867;28;20218;-79
2023/04/18 04:50:40;;;;;;;21.13;10.77;;;;;;;-145.69;100.00;52586.97;5074710;28;20222;-79
2023/04/18 04:53:07;;;;;;;21.43;10.90;;;;;;;-145.69;100.00;52537.47;5074450;28;20234;-79
2023/04/18 04:55:34;;;;;;;21.97;10.73;;;;;;;-145.69;100.00;52567.16;5073778;28;20373;-79
2023/04/18 04:58:01;;;;;;;21.10;10.67;;;;;;;-145.69;100.00;52575.09;5074326;28;20617;-79
2023/04/18 05:00:27;;;;;;;24.10;11.10;;;;;;;-145.69;100.00;52563.22;5074239;28;20206;-79
2023/04/18 05:02:55;;;;;;;21.70;10.80;;;;;;;-145.69;100.00;52567.16;5074251;28;20233;-79
2023/04/18 05:05:22;;;;;;;24.37;12.00;;;;;;;-145.69;100.00;52606.78;5074030;28;20199;-79
2023/04/18 05:07:50;;;;;;;27.70;12.90;;;;;;;-145.69;100.00;52547.38;5074285;28;20198;-80
2023/04/18 05:10:16;;;;;;;25.33;12.23;;;;;;;-145.69;100.00;52596.88;5073726;28;20301;-79
2023/04/18 05:12:43;;;;;;;24.13;11.73;;;;;;;-145.69;100.00;52555.28;5073697;28;20199;-79
2023/04/18 05:15:10;;;;;;;24.57;11.30;;;;;;;-145.69;100.00;52606.78;5073786;28;20195;-79
2023/04/18 05:17:37;;;;;;;24.83;11.77;;;;;;;-145.69;100.00;52588.97;5073915;28;20909;-80
2023/04/18 05:20:04;;;;;;;24.90;11.53;;;;;;;-145.69;100.00;52539.44;5074159;28;20285;-79
2023/04/18 05:22:30;;;;;;;25.07;12.13;;;;;;;-145.69;100.00;52561.22;5073803;28;20206;-79
2023/04/18 05:24:58;;;;;;;23.07;11.80;;;;;;;-145.69;100.00;52573.13;5073685;28;20199;-79
2023/04/18 05:27:27;;;;;;;24.50;12.00;;;;;;;-145.69;100.00;52561.22;5073495;28;20206;-79
2023/04/18 05:29:53;;;;;;;25.60;11.10;;;;;;;-145.69;100.00;52586.97;5073593;28;20194;-79
2023/04/18 05:32:20;;;;;;;23.63;11.03;;;;;;;-145.69;100.00;52575.09;5073633;28;20573;-79
2023/04/18 05:34:48;;;;;;;26.17;11.50;;;;;;;-145.69;100.00;52575.09;5073349;28;20203;-79
2023/04/18 05:37:14;;;;;;;23.40;11.40;;;;;;;-145.69;100.00;52590.94;5072835;28;20281;-80
2023/04/18 05:39:41;;;;;;;22.80;11.80;;;;;;;-145.69;100.00;52579.06;5073607;28;20203;-80
2023/04/18 05:42:09;;;;;;;23.33;11.37;;;;;;;-145.69;100.00;52594.91;5072614;28;20210;-79
2023/04/18 05:44:37;;;;;;;23.37;11.33;;;;;;;-145.69;100.00;52573.13;5073378;28;20214;-79
2023/04/18 05:47:04;;;;;;;22.53;11.37;;;;;;;-145.69;100.00;52579.06;5073484;28;20199;-79
2023/04/18 05:49:31;;;;;;;22.13;11.70;;;;;;;-145.69;100.00;52559.25;5073114;28;20194;-79
2023/04/18 05:51:57;;;;;;;22.23;12.75;;;;;;;-145.69;100.00;52586.97;5067890;28;20817;-79
2023/04/18 05:54:24;;;;;;;20.17;10.80;;;;;;;-145.69;100.00;52586.97;5054742;28;20196;-80
2023/04/18 05:56:51;;;;;;;21.20;10.30;;;;;;;-145.69;100.00;52586.97;5053598;28;20249;-80
2023/04/18 05:59:19;;;;;;;21.50;10.50;;;;;;;-145.69;100.00;52559.25;5053514;28;20199;-80
2023/04/18 06:01:46;;;;;;;18.97;9.47;;;;;;;-145.69;100.00;52567.16;5058552;28;20191;-79
2023/04/18 06:04:12;;;;;;;19.30;9.77;;;;;;;-145.69;100.00;52537.47;5073105;28;20555;-79
2023/04/18 06:06:39;;;;;;;19.00;9.90;;;;;;;-145.69;100.00;52579.06;5073026;28;20224;-79
2023/04/18 06:09:05;;;;;;;22.03;10.37;;;;;;;-145.69;100.00;52592.91;5073176;28;20673;-79
2023/04/18 06:11:32;;;;;;;22.20;10.87;;;;;;;-145.69;100.00;52594.91;5072475;28;20229;-77
2023/04/18 06:13:59;;;;;;;21.03;9.90;;;;;;;-145.69;100.00;52553.31;5071082;28;20199;-79
2023/04/18 06:16:27;;;;;;;21.80;10.43;;;;;;;-145.69;100.00;52594.91;5072686;28;20198;-79
2023/04/18 06:18:53;;;;;;;21.70;10.93;;;;;;;-145.69;100.00;52598.84;5072962;28;20206;-79
2023/04/18 06:21:20;;;;;;;19.67;9.60;;;;;;;-145.69;100.00;52571.13;5073091;28;20600;-80
2023/04/18 06:23:47;;;;;;;20.70;10.07;;;;;;;-145.69;100.00;52547.38;5072420;28;20238;-79
2023/04/18 06:26:13;;;;;;;18.33;9.93;;;;;;;-145.69;100.00;52567.16;5072979;28;20206;-79
2023/04/18 06:28:40;;;;;;;21.37;11.40;;;;;;;-145.69;100.00;52565.19;5072928;28;20201;-79
2023/04/18 06:31:07;;;;;;;23.33;11.60;;;;;;;-145.69;100.00;52555.28;5072829;28;20693;-79
2023/04/18 06:33:36;;;;;;;22.57;11.33;;;;;;;-145.69;100.00;52588.97;5072600;28;20319;-80
2023/04/18 06:36:03;;;;;;;21.17;11.23;;;;;;;-145.69;100.00;52567.16;5072677;28;20668;-79
2023/04/18 06:38:29;;;;;;;20.97;10.83;;;;;;;-145.69;100.00;52583.00;5072116;28;20657;-79
2023/04/18 06:40:56;;;;;;;21.60;10.87;;;;;;;-145.69;100.00;52557.28;5072710;28;20203;-80
2023/04/18 06:43:22;;;;;;;20.77;11.27;;;;;;;-145.69;100.00;52555.28;5072370;28;20285;-81
2023/04/18 06:45:49;;;;;;;22.20;11.27;;;;;;;-145.69;100.00;52600.84;5072487;28;20242;-80
2023/04/18 06:48:16;;;;;;;25.83;12.33;;;;;;;-145.69;100.00;52563.22;5074258;28;20205;-80
2023/04/18 06:50:44;;;;;;;23.43;11.90;;;;;;;-145.69;100.00;52551.31;5076542;28;20206;-80
2023/04/18 06:53:11;;;;;;;20.30;11.40;;;;;;;-145.69;100.00;52547.38;5075923;28;20211;-81
2023/04/18 06:55:37;;;;;;;24.97;12.37;;;;;;;-145.69;100.00;52579.06;5076726;28;20194;-80
2023/04/18 06:58:04;;;;;;;22.60;11.07;;;;;;;-145.69;100.00;52579.06;5076472;28;20195;-80
2023/04/18 07:00:31;;;;;;;25.03;12.47;;;;;;;-145.69;100.00;52583.00;5076522;28;20195;-81
2023/04/18 07:02:57;;;;;;;22.53;11.97;;;;;;;-145.69;100.00;52569.16;5076366;28;20194;-81
2023/04/18 07:05:23;;;;;;;23.87;12.13;;;;;;;-145.69;100.00;52618.66;5076657;28;20199;-80
2023/04/18 07:07:51;;;;;;;24.13;13.23;;;;;;;-145.69;100.00;52583.00;5076764;28;20238;-80
2023/04/18 07:10:18;;;;;;;23.80;11.90;;;;;;;-145.69;100.00;52551.31;5076366;28;20187;-80
2023/04/18 07:12:44;;;;;;;22.87;12.50;;;;;;;-145.69;100.00;52551.31;5075930;28;20225;-80
2023/04/18 07:15:11;;;;;;;26.10;13.30;;;;;;;-145.69;100.00;52583.00;5076158;28;20456;-80
2023/04/18 07:17:38;;;;;;;23.00;12.27;;;;;;;-145.69;100.00;52579.06;5076447;28;20229;-80
2023/04/18 07:20:05;;;;;;;25.17;13.07;;;;;;;-145.69;100.00;52567.16;5076406;28;20222;-81
2023/04/18 07:22:32;;;;;;;24.23;13.17;;;;;;;-145.69;100.00;52579.06;5076268;28;20253;-80
2023/04/18 07:25:00;;;;;;;23.47;12.23;;;;;;;-145.69;100.00;52539.44;5075648;28;20203;-81
2023/04/18 07:27:26;;;;;;;23.60;11.97;;;;;;;-145.69;100.00;52533.50;5076195;28;20203;-80
2023/04/18 07:29:52;;;;;;;21.63;11.87;;;;;;;-145.69;100.00;52577.06;5076139;28;20206;-80
2023/04/18 07:32:19;;;;;;;20.40;11.70;;;;;;;-145.69;100.00;52527.56;5075635;28;20223;-80
2023/04/18 07:34:45;;;;;;;24.50;12.40;;;;;;;-145.69;100.00;52571.13;5076330;28;20210;-81
2023/04/18 07:37:12;;;;;;;25.20;13.43;;;;;;;-145.69;100.00;52579.06;5075836;28;20194;-80
2023/04/18 07:39:39;;;;;;;23.80;13.20;;;;;;;-145.69;100.00;52517.66;5076140;28;20209;-80
2023/04/18 07:42:07;;;;;;;23.97;13.43;;;;;;;-145.69;100.00;52575.09;5075620;28;20745;-80
2023/04/18 07:44:35;;;;;;;24.87;13.53;;;;;;;-145.69;100.00;52585.00;5075456;28;20241;-81
2023/04/18 07:47:01;;;;;;;24.90;13.80;;;;;;;-145.69;100.00;52567.16;5075609;28;20203;-80
2023/04/18 07:49:28;;;;;;;28.77;13.97;;;;;;;-145.69;100.00;52543.41;5073907;28;20550;-81
2023/04/18 07:51:54;;;;;;;26.37;14.03;;;;;;;-145.69;100.00;52537.47;5069213;28;20704;-81
2023/04/18 07:54:21;;;;;;;25.47;13.80;;;;;;;-145.69;100.00;52575.09;5075649;28;20190;-80
2023/04/18 07:56:47;;;;;;;26.67;14.13;;;;;;;-145.69;100.00;52547.38;5075526;28;20195;-81
2023/04/18 07:59:15;;;;;;;22.77;13.07;;;;;;;-145.69;100.00;52551.31;5074973;28;20199;-81
2023/04/18 08:01:41;;;;;;;26.73;14.37;;;;;;;-145.69;100.00;52541.44;5064356;28;20199;-80
2023/04/18 08:04:08;;;;;;;23.70;13.23;;;;;;;-145.69;100.00;52559.25;5055476;28;20199;-80
2023/04/18 08:06:34;;;;;;;25.17;13.27;;;;;;;-145.69;100.00;52535.47;5057751;28;20223;-80
2023/04/18 08:09:04;;;;;;;22.23;12.33;;;;;;;-145.69;100.00;52563.22;5075495;28;20203;-81
2023/04/18 08:11:30;;;;;;;23.37;12.50;;;;;;;-145.69;100.00;52563.22;5074609;28;20219;-81
2023/04/18 08:13:57;;;;;;;22.50;12.07;;;;;;;-145.69;100.00;52509.75;5074623;28;20194;-82
2023/04/18 08:16:25;;;;;;;21.07;11.77;;;;;;;-145.69;100.00;52596.88;5075336;28;20217;-81
2023/04/18 08:18:52;;;;;;;21.73;12.13;;;;;;;-145.69;100.00;52547.38;5075410;28;20206;-80
2023/04/18 08:21:19;;;;;;;25.97;12.13;;;;;;;-145.69;100.00;52553.31;5074320;28;20211;-81
2023/04/18 08:23:45;;;;;;;23.07;12.70;;;;;;;-145.69;100.00;52531.53;5074945;28;20202;-80
2023/04/18 08:26:12;;;;;;;24.80;13.00;;;;;;;-145.69;100.00;52541.44;5074839;28;20197;-80
2023/04/18 08:28:38;;;;;;;22.53;12.30;;;;;;;-145.69;100.00;52541.44;5074929;28;20557;-81
2023/04/18 08:31:05;;;;;;;26.80;13.30;;;;;;;-145.69;100.00;52559.25;5074524;28;20646;-81
2023/04/18 08:33:33;;;;;;;22.83;12.47;;;;;;;-145.69;100.00;52567.16;5074867;28;20198;-80
2023/04/18 08:35:59;;;;;;;24.37;13.47;;;;;;;-145.69;100.00;52559.25;5074831;28;20198;-80
2023/04/18 08:38:26;;;;;;;23.77;12.57;;;;;;;-145.69;100.00;52553.31;5074893;28;20202;-79
2023/04/18 08:40:52;;;;;;;23.73;12.73;;;;;;;-145.69;100.00;52561.22;5074303;28;20187;-79
2023/04/18 08:43:19;;;;;;;24.00;12.67;;;;;;;-145.69;100.00;52547.38;5074707;28;20202;-80
2023/04/18 08:45:47;;;;;;;27.80;12.87;;;;;;;-145.69;100.00;52569.16;5074493;28;20232;-80
2023/04/18 08:48:14;;;;;;;27.33;13.67;;;;;;;-145.69;100.00;52551.31;5074269;28;20561;-82
2023/04/18 08:50:42;;;;;;;27.87;14.07;;;;;;;-145.69;100.00;52501.81;5074530;28;20224;-81
2023/04/18 08:53:09;;;;;;;25.10;13.37;;;;;;;-145.69;100.00;52529.53;5074375;28;20309;-79
2023/04/18 08:55:36;;;;;;;25.73;13.27;;;;;;;-145.69;100.00;52541.44;5074545;28;20205;-79
2023/04/18 08:58:03;;;;;;;22.43;12.57;;;;;;;-145.69;100.00;52547.38;5074045;28;20202;-81
2023/04/18 09:00:30;;;;;;;24.77;13.63;;;;;;;-145.69;100.00;52535.47;5074358;28;20286;-80
2023/04/18 09:02:57;;;;;;;23.70;13.27;;;;;;;-145.69;100.00;52537.47;5074473;28;20202;-80
2023/04/18 09:05:25;;;;;;;24.80;13.63;;;;;;;-145.69;100.00;52537.47;5074402;28;20649;-79
2023/04/18 09:07:56;;;;;;;25.60;13.53;;;;;;;-145.69;100.00;52553.31;5074261;28;20684;-79
2023/04/18 09:10:27;;;;;;;25.90;13.20;;;;;;;-145.69;100.00;52531.53;5073806;28;20198;-79
2023/04/18 09:12:55;;;;;;;25.13;13.23;;;;;;;-145.69;100.00;52531.53;5073348;28;20712;-80
2023/04/18 09:15:25;;;;;;;24.43;13.37;;;;;;;-145.69;100.00;52519.63;5074011;28;20260;-81
2023/04/18 09:17:52;;;;;;;23.83;12.63;;;;;;;-145.69;100.00;52557.28;5073853;28;20226;-80
2023/04/18 09:20:34;;;;;;;23.23;12.73;;;;;;;-145.69;100.00;52541.44;5073769;28;20199;-82
2023/04/18 09:23:04;;;;;;;25.80;13.23;;;;;;;-145.69;100.00;52527.56;5073616;28;20256;-83
2023/04/18 09:25:33;;;;;;;23.13;13.07;;;;;;;-145.69;100.00;52571.13;5073707;28;20202;-83
2023/04/18 09:28:00;;;;;;;25.03;13.47;;;;;;;-145.69;100.00;52523.59;5074007;28;20225;-81
2023/04/18 09:30:31;;;;;;;23.17;12.23;;;;;;;-145.69;100.00;52499.84;5073620;28;20191;-82
2023/04/18 09:33:00;;;;;;;24.00;12.60;;;;;;;-145.69;100.00;52541.44;5073154;28;20226;-82
2023/04/18 09:35:27;;;;;;;23.33;12.63;;;;;;;-145.69;100.00;52482.00;5073803;28;20199;-82
2023/04/18 09:37:54;;;;;;;22.67;12.03;;;;;;;-145.69;100.00;52547.38;5073632;28;20340;-81
2023/04/18 09:40:22;;;;;;;21.93;12.07;;;;;;;-145.69;100.00;52527.56;5073415;28;20198;-82
2023/04/18 09:42:51;;;;;;;23.33;12.50;;;;;;;-145.69;100.00;52515.69;5070917;28;20202;-82
2023/04/18 09:45:18;;;;;;;21.23;12.37;;;;;;;-145.69;100.00;52537.47;5053403;28;20267;-82
2023/04/18 09:47:44;;;;;;;21.77;11.70;;;;;;;-145.69;100.00;52489.94;5064740;28;20209;-81
2023/04/18 09:50:12;;;;;;;21.70;11.38;;;;;;;-145.69;100.00;52484.00;5072932;28;20191;-82
2023/04/18 09:52:40;;;;;;;19.25;10.63;;;;;;;-145.69;100.00;52487.97;5073107;28;20608;-82
2023/04/18 09:55:08;;;;;;;19.08;10.52;;;;;;;-145.69;100.00;52507.75;5073212;28;20195;-82
2023/04/18 09:57:39;;;;;;;19.35;10.98;;;;;;;-145.69;100.00;52527.56;5073323;28;20226;-82
2023/04/18 10:00:12;;;;;;;18.50;10.98;;;;;;;-145.69;100.00;52523.59;5072714;28;20665;-81
2023/04/18 10:02:47;;;;;;;17.70;10.82;;;;;;;-145.69;100.00;52523.59;5073215;28;20190;-81
2023/04/18 10:05:15;;;;;;;19.75;11.20;;;;;;;-145.69;100.00;52480.03;5073063;28;20198;-81
2023/04/18 10:07:43;;;;;;;16.65;9.82;;;;;;;-145.69;100.00;52484.00;5073022;28;20199;-81
2023/04/18 10:10:10;;;;;;;15.73;9.63;;;;;;;-145.69;100.00;52480.03;5072586;28;20684;-81
2023/04/18 10:12:38;;;;;;;17.05;10.10;;;;;;;-145.69;100.00;52499.84;5072800;28;20229;-81
2023/04/18 10:15:07;;;;;;;16.80;10.50;;;;;;;-145.69;100.00;52472.13;5072853;28;20570;-81
2023/04/18 10:17:41;;;;;;;18.52;9.82;;;;;;;-145.69;100.00;52484.00;5073082;28;20562;-81
2023/04/18 10:20:10;;;;;;;17.05;9.65;;;;;;;-145.69;100.00;52476.06;5053112;28;20194;-82
2023/04/18 10:22:36;;;;;;;18.65;8.82;;;;;;;-145.69;100.00;52499.84;5052721;28;20202;-83
2023/04/18 10:25:03;;;;;;;15.85;9.20;;;;;;;-145.69;100.00;52491.91;5058366;28;20195;-79
2023/04/18 10:27:57;;;;;;;16.10;9.90;;;;;;;-145.69;100.00;52489.94;5071510;28;20281;-78
2023/04/18 10:30:52;;;;;;;14.85;8.85;;;;;;;-145.69;100.00;52507.75;5052855;28;20235;-76
2023/04/18 10:33:32;;;;;;;16.35;8.77;;;;;;;-145.69;100.00;52484.00;5052824;28;20298;-76
2023/04/18 10:36:05;;;;;;;16.55;8.85;;;;;;;-145.69;100.00;52507.75;5064872;28;20260;-76
2023/04/18 10:38:32;;;;;;;15.27;8.40;;;;;;;-145.69;100.00;52484.00;5072742;28;20194;-76
2023/04/18 10:41:20;;;;;;;15.68;9.05;;;;;;;-145.69;100.00;52480.03;5072682;28;20205;-76
2023/04/18 10:44:17;;;;;;;15.57;9.18;;;;;;;-145.69;100.00;52476.06;5072637;28;20217;-77
2023/04/18 10:47:16;;;;;;;16.85;9.32;;;;;;;-145.69;100.00;52456.28;5071265;28;20248;-77
2023/04/18 10:49:53;;;;;;;14.57;8.50;;;;;;;-145.69;100.00;52474.09;5062352;28;20207;-76
2023/04/18 10:52:20;;;;;;;13.85;8.38;;;;;;;-145.69;100.00;52485.97;5072493;28;20723;-77
2023/04/18 10:54:47;;;;;;;16.23;8.95;;;;;;;-145.69;100.00;52458.25;5072559;28;20203;-76
2023/04/18 10:57:14;;;;;;;13.63;8.52;;;;;;;-145.69;100.00;52499.84;5072896;28;20195;-77
2023/04/18 10:59:44;;;;;;;14.10;8.88;;;;;;;-145.69;100.00;52476.06;5072669;28;20201;-80